createdAt,value
2023-04-15T00:00:39.227Z,10.38
2023-04-15T00:04:51.008Z,10.32
2023-04-15T00:08:56.956Z,10.32
2023-04-15T00:12:59.649Z,10.37
2023-04-15T00:17:04.872Z,10.38
2023-04-15T00:21:07.737Z,10.40
2023-04-15T00:25:12.064Z,10.39
2023-04-15T00:29:15.546Z,10.44
2023-04-15T00:33:18.432Z,10.39
2023-04-15T00:37:21.641Z,10.45
2023-04-15T00:41:25.901Z,10.42
2023-04-15T00:45:34.525Z,10.37
2023-04-15T00:49:37.667Z,10.29
2023-04-15T00:53:43.978Z,10.14
2023-04-15T00:57:52.285Z,10.16
2023-04-15T01:01:55.736Z,10.00
2023-04-15T01:06:03.892Z,9.97
2023-04-15T01:10:12.826Z,9.90
2023-04-15T01:14:18.362Z,9.94
2023-04-15T01:18:22.540Z,9.95
2023-04-15T01:22:28.001Z,9.80
2023-04-15T01:26:32.637Z,9.64
2023-04-15T01:30:36.336Z,9.59
2023-04-15T01:34:39.436Z,9.42
2023-04-15T01:38:42.516Z,9.37
2023-04-15T01:42:46.813Z,9.41
2023-04-15T01:46:49.997Z,9.34
2023-04-15T01:50:53.861Z,9.37
2023-04-15T01:54:57.088Z,9.31
2023-04-15T01:59:04.264Z,9.32
2023-04-15T02:03:06.770Z,9.20
2023-04-15T02:07:09.824Z,9.13
2023-04-15T02:11:12.757Z,9.04
2023-04-15T02:15:17.121Z,9.01
2023-04-15T02:19:20.186Z,8.96
2023-04-15T02:23:22.712Z,8.95
2023-04-15T02:27:25.634Z,8.95
2023-04-15T02:31:30.508Z,8.93
2023-04-15T02:35:33.701Z,8.94
2023-04-15T02:39:37.009Z,8.92
2023-04-15T02:43:40.329Z,8.90
2023-04-15T02:47:46.218Z,8.84
2023-04-15T02:51:50.062Z,8.83
2023-04-15T02:55:52.990Z,8.83
2023-04-15T02:59:56.017Z,8.85
2023-04-15T03:04:00.942Z,8.82
2023-04-15T03:08:04.446Z,8.82
2023-04-15T03:12:07.157Z,8.84
2023-04-15T03:16:10.363Z,8.77
2023-04-15T03:20:15.904Z,8.73
2023-04-15T03:24:19.430Z,8.77
2023-04-15T03:28:23.994Z,8.77
2023-04-15T03:32:27.520Z,8.78
2023-04-15T03:36:33.635Z,8.89
2023-04-15T03:40:39.055Z,8.85
2023-04-15T03:44:41.942Z,8.91
2023-04-15T03:48:45.258Z,8.96
2023-04-15T03:52:50.738Z,8.95
2023-04-15T03:56:53.915Z,8.94
2023-04-15T04:00:57.366Z,8.94
2023-04-15T04:05:00.320Z,8.95
2023-04-15T04:09:05.120Z,8.96
2023-04-15T04:13:08.083Z,9.01
2023-04-15T04:17:11.505Z,9.02
2023-04-15T04:21:14.581Z,9.10
2023-04-15T04:25:19.341Z,9.11
2023-04-15T04:29:22.512Z,9.10
2023-04-15T04:33:25.431Z,9.06
2023-04-15T04:37:28.637Z,9.07
2023-04-15T04:41:33.689Z,9.10
2023-04-15T04:45:36.782Z,9.07
2023-04-15T04:49:39.567Z,9.07
2023-04-15T04:53:43.350Z,9.09
2023-04-15T04:57:48.164Z,9.12
2023-04-15T05:01:51.669Z,9.10
2023-04-15T05:05:55.006Z,9.14
2023-04-15T05:09:57.620Z,9.14
2023-04-15T05:14:02.638Z,9.12
2023-04-15T05:18:05.888Z,9.10
2023-04-15T05:22:14.516Z,9.14
2023-04-15T05:26:17.975Z,9.13
2023-04-15T05:30:22.787Z,9.14
2023-04-15T05:34:25.909Z,9.16
2023-04-15T05:38:28.667Z,9.23
2023-04-15T05:42:31.705Z,9.19
2023-04-15T05:46:36.140Z,9.16
2023-04-15T05:50:39.350Z,9.17
2023-04-15T05:54:41.874Z,9.15
2023-04-15T05:58:44.726Z,9.12
2023-04-15T06:02:49.071Z,9.13
2023-04-15T06:06:51.834Z,9.14
2023-04-15T06:10:54.761Z,9.11
2023-04-15T06:15:00.201Z,9.13
2023-04-15T06:19:05.065Z,9.16
2023-04-15T06:23:08.290Z,9.15
2023-04-15T06:27:11.052Z,9.15
2023-04-15T06:31:16.266Z,9.19
2023-04-15T06:35:20.762Z,9.20
2023-04-15T06:39:23.882Z,9.21
2023-04-15T06:43:26.567Z,9.22
2023-04-15T06:47:29.692Z,9.21
2023-04-15T06:51:34.205Z,9.22
2023-04-15T06:55:38.445Z,9.29
2023-04-15T06:59:41.325Z,9.29
2023-04-15T07:03:44.231Z,9.32
2023-04-15T07:07:48.429Z,9.29
2023-04-15T07:11:51.671Z,9.34
2023-04-15T07:15:54.710Z,9.38
2023-04-15T07:19:57.797Z,9.32
2023-04-15T07:24:01.884Z,9.29
2023-04-15T07:28:10.861Z,9.35
2023-04-15T07:32:13.968Z,9.40
2023-04-15T07:36:20.207Z,9.43
2023-04-15T07:40:24.735Z,9.47
2023-04-15T07:44:28.277Z,9.53
2023-04-15T07:48:31.082Z,9.54
2023-04-15T07:52:39.421Z,9.54
2023-04-15T07:56:43.963Z,9.56
2023-04-15T08:00:47.122Z,9.54
2023-04-15T08:04:49.957Z,9.59
2023-04-15T08:08:55.938Z,9.66
2023-04-15T08:13:00.405Z,9.63
2023-04-15T08:17:04.431Z,9.65
2023-04-15T08:21:09.766Z,9.79
2023-04-15T08:25:12.446Z,9.88
2023-04-15T08:29:16.737Z,9.93
2023-04-15T08:33:19.731Z,10.01
2023-04-15T08:37:23.444Z,10.03
2023-04-15T08:41:27.452Z,10.04
2023-04-15T08:45:32.410Z,10.02
2023-04-15T08:49:37.168Z,10.00
2023-04-15T08:53:40.397Z,10.10
2023-04-15T08:57:45.620Z,10.23
2023-04-15T09:01:51.008Z,10.34
2023-04-15T09:05:55.265Z,10.39
2023-04-15T09:09:58.849Z,10.48
2023-04-15T09:14:01.909Z,10.54
2023-04-15T09:18:06.676Z,10.43
2023-04-15T09:22:09.975Z,10.37
2023-04-15T09:26:13.954Z,10.28
2023-04-15T09:30:18.381Z,10.38
2023-04-15T09:34:37.235Z,10.48
2023-04-15T09:38:56.675Z,10.62
2023-04-15T09:43:01.776Z,10.91
2023-04-15T09:47:04.858Z,10.99
2023-04-15T09:51:09.480Z,11.23
2023-04-15T09:55:13.722Z,11.37
2023-04-15T09:59:20.119Z,11.39
2023-04-15T10:03:25.630Z,11.37
2023-04-15T10:07:31.024Z,11.35
2023-04-15T10:11:36.738Z,11.41
2023-04-15T10:15:43.553Z,11.29
2023-04-15T10:19:47.357Z,11.24
2023-04-15T10:23:53.877Z,11.26
2023-04-15T10:27:59.220Z,11.27
2023-04-15T10:32:03.562Z,11.40
2023-04-15T10:36:08.386Z,11.57
2023-04-15T10:40:31.811Z,11.90
2023-04-15T10:44:34.840Z,12.29
2023-04-15T10:48:38.393Z,12.69
2023-04-15T10:52:44.161Z,12.93
2023-04-15T10:56:52.550Z,12.94
2023-04-15T11:00:55.668Z,13.03
2023-04-15T11:05:01.064Z,12.85
2023-04-15T11:09:06.269Z,12.54
2023-04-15T11:13:21.915Z,12.31
2023-04-15T11:17:31.046Z,12.47
2023-04-15T11:21:34.427Z,12.47
2023-04-15T11:25:40.234Z,12.16
2023-04-15T11:29:44.711Z,11.84
2023-04-15T11:33:49.170Z,11.73
2023-04-15T11:37:52.825Z,11.85
2023-04-15T11:41:55.656Z,12.01
2023-04-15T11:46:00.632Z,12.24
2023-04-15T11:50:16.807Z,12.40
2023-04-15T11:54:20.819Z,12.82
2023-04-15T11:58:25.275Z,13.24
2023-04-15T12:02:34.430Z,13.47
2023-04-15T12:06:39.201Z,13.07
2023-04-15T12:10:42.281Z,12.91
2023-04-15T12:14:47.242Z,13.04
2023-04-15T12:18:56.179Z,13.29
2023-04-15T12:23:09.026Z,13.39
2023-04-15T12:27:14.409Z,13.60
2023-04-15T12:31:18.311Z,13.72
2023-04-15T12:35:23.150Z,14.28
2023-04-15T12:39:28.107Z,14.75
2023-04-15T12:43:52.718Z,14.85
2023-04-15T12:47:56.220Z,14.94
2023-04-15T12:52:02.110Z,14.94
2023-04-15T12:56:05.508Z,15.09
2023-04-15T13:00:10.339Z,14.95
2023-04-15T13:04:13.750Z,14.90
2023-04-15T13:08:28.885Z,15.04
2023-04-15T13:12:33.403Z,15.04
2023-04-15T13:16:37.231Z,14.81
2023-04-15T13:20:41.098Z,14.50
2023-04-15T13:24:45.786Z,14.35
2023-04-15T13:28:48.860Z,13.90
2023-04-15T13:32:52.406Z,13.74
2023-04-15T13:36:55.756Z,13.89
2023-04-15T13:41:02.387Z,13.82
2023-04-15T13:45:06.530Z,13.80
2023-04-15T13:49:12.639Z,13.82
2023-04-15T13:53:15.921Z,13.93
2023-04-15T13:57:20.417Z,13.89
2023-04-15T14:01:23.669Z,13.97
2023-04-15T14:05:29.018Z,14.29
2023-04-15T14:09:32.163Z,14.51
2023-04-15T14:13:36.751Z,14.55
2023-04-15T14:17:39.850Z,14.53
2023-04-15T14:21:42.875Z,14.40
2023-04-15T14:25:48.943Z,14.41
2023-04-15T14:29:54.361Z,14.44
2023-04-15T14:33:57.711Z,14.18
2023-04-15T14:38:01.240Z,13.97
2023-04-15T14:42:04.784Z,13.82
2023-04-15T14:46:11.702Z,13.68
2023-04-15T14:50:14.920Z,13.59
2023-04-15T14:54:22.356Z,13.58
2023-04-15T14:58:25.630Z,13.53
2023-04-15T15:02:39.391Z,13.50
2023-04-15T15:06:43.425Z,13.46
2023-04-15T15:10:49.417Z,13.29
2023-04-15T15:14:54.809Z,13.14
2023-04-15T15:18:59.256Z,13.05
2023-04-15T15:23:02.228Z,13.07
2023-04-15T15:27:05.450Z,13.05
2023-04-15T15:31:09.190Z,12.96
2023-04-15T15:35:16.591Z,12.82
2023-04-15T15:39:19.647Z,12.50
2023-04-15T15:43:24.693Z,12.27
2023-04-15T15:47:27.823Z,12.18
2023-04-15T15:51:33.382Z,12.23
2023-04-15T15:55:39.107Z,12.30
2023-04-15T15:59:43.931Z,12.20
2023-04-15T16:03:47.137Z,12.10
2023-04-15T16:07:51.603Z,11.96
2023-04-15T16:11:58.114Z,11.87
2023-04-15T16:16:01.139Z,12.02
2023-04-15T16:20:06.423Z,12.25
2023-04-15T16:24:11.099Z,12.40
2023-04-15T16:28:25.681Z,12.41
2023-04-15T16:32:29.941Z,12.32
2023-04-15T16:36:33.012Z,12.19
2023-04-15T16:40:38.724Z,12.01
2023-04-15T16:44:44.701Z,11.86
2023-04-15T16:48:47.838Z,11.80
2023-04-15T16:52:50.939Z,11.68
2023-04-15T16:56:59.021Z,11.62
2023-04-15T17:01:01.920Z,11.57
2023-04-15T17:05:05.040Z,11.50
2023-04-15T17:09:07.842Z,11.37
2023-04-15T17:13:14.263Z,11.23
2023-04-15T17:17:20.961Z,11.14
2023-04-15T17:21:24.201Z,10.99
2023-04-15T17:25:27.350Z,10.87
2023-04-15T17:29:32.308Z,10.80
2023-04-15T17:34:01.117Z,10.66
2023-04-15T17:37:59.087Z,10.60
2023-04-15T17:42:05.026Z,10.69
2023-04-15T17:46:09.757Z,10.70
2023-04-15T17:50:12.869Z,10.74
2023-04-15T17:54:16.356Z,10.67
2023-04-15T17:58:19.361Z,10.64
2023-04-15T18:02:29.837Z,10.54
2023-04-15T18:06:33.248Z,10.49
2023-04-15T18:10:38.117Z,10.44
2023-04-15T18:14:42.769Z,10.36
2023-04-15T18:18:49.407Z,10.12
2023-04-15T18:22:52.840Z,9.85
2023-04-15T18:26:56.725Z,9.56
2023-04-15T18:30:59.617Z,9.35
2023-04-15T18:35:08.093Z,9.22
2023-04-15T18:39:11.358Z,9.16
2023-04-15T18:43:14.275Z,9.10
2023-04-15T18:47:18.203Z,9.04
2023-04-15T18:51:23.602Z,9.02
2023-04-15T18:55:26.780Z,9.00
2023-04-15T18:59:36.318Z,8.95
2023-04-15T19:03:40.053Z,8.93
2023-04-15T19:07:44.642Z,8.88
2023-04-15T19:11:47.926Z,8.87
2023-04-15T19:15:50.444Z,8.86
2023-04-15T19:19:54.095Z,8.81
2023-04-15T19:24:00.312Z,8.83
2023-04-15T19:28:03.578Z,8.82
2023-04-15T19:32:07.383Z,8.84
2023-04-15T19:36:11.902Z,8.86
2023-04-15T19:40:19.532Z,8.87
2023-04-15T19:44:22.564Z,8.89
2023-04-15T19:48:27.216Z,8.90
2023-04-15T19:52:30.165Z,8.91
2023-04-15T19:56:34.645Z,8.91
2023-04-15T20:00:38.385Z,8.88
2023-04-15T20:04:42.842Z,8.86
2023-04-15T20:08:45.881Z,8.88
2023-04-15T20:12:53.013Z,8.90
2023-04-15T20:16:58.519Z,8.89
2023-04-15T20:21:01.958Z,8.85
2023-04-15T20:25:05.273Z,8.83
2023-04-15T20:29:13.217Z,8.81
2023-04-15T20:33:18.527Z,8.80
2023-04-15T20:37:22.615Z,8.77
2023-04-15T20:41:27.693Z,8.82
2023-04-15T20:45:32.115Z,8.76
2023-04-15T20:49:36.092Z,8.72
2023-04-15T20:53:39.011Z,8.67
2023-04-15T20:57:42.615Z,8.70
2023-04-15T21:01:47.547Z,8.70
2023-04-15T21:05:50.593Z,8.68
2023-04-15T21:09:55.510Z,8.72
2023-04-15T21:13:58.683Z,8.67
2023-04-15T21:18:08.684Z,8.69
2023-04-15T21:22:11.924Z,8.66
2023-04-15T21:26:14.475Z,8.64
2023-04-15T21:30:18.275Z,8.60
2023-04-15T21:34:23.212Z,8.60
2023-04-15T21:38:26.515Z,8.54
2023-04-15T21:42:31.601Z,8.60
2023-04-15T21:46:35.631Z,8.55
2023-04-15T21:50:40.549Z,8.49
2023-04-15T21:54:43.511Z,8.46
2023-04-15T21:58:46.434Z,8.41
2023-04-15T22:02:49.451Z,8.41
2023-04-15T22:06:55.779Z,8.42
2023-04-15T22:10:58.804Z,8.44
2023-04-15T22:15:02.075Z,8.43
2023-04-15T22:19:05.443Z,8.43
2023-04-15T22:23:10.127Z,8.47
2023-04-15T22:27:12.882Z,8.49
2023-04-15T22:31:16.148Z,8.48
2023-04-15T22:35:21.467Z,8.48
2023-04-15T22:39:26.251Z,8.55
2023-04-15T22:43:29.462Z,8.51
2023-04-15T22:47:32.785Z,8.50
2023-04-15T22:51:36.821Z,8.50
2023-04-15T22:55:41.133Z,8.50
2023-04-15T22:59:44.248Z,8.52
2023-04-15T23:03:56.110Z,8.52
2023-04-15T23:08:07.648Z,8.49
2023-04-15T23:12:12.425Z,8.49
2023-04-15T23:16:15.513Z,8.46
2023-04-15T23:20:21.832Z,8.45
2023-04-15T23:24:24.837Z,8.48
2023-04-15T23:28:29.235Z,8.47
2023-04-15T23:32:32.491Z,8.45
2023-04-15T23:36:35.588Z,8.45
2023-04-15T23:40:38.547Z,8.47
2023-04-15T23:44:43.001Z,8.42
2023-04-15T23:48:48.054Z,8.43
2023-04-15T23:52:51.140Z,8.46
2023-04-15T23:56:54.167Z,8.43
